sensor_id;sensor_type;location;lat;lon;timestamp;P1;durP1;ratioP1;P2;durP2;ratioP2
69419;SDS011;56612;52.030;113.524;2022-08-27T00:01:00;14.13;;;4.82;;
69419;SDS011;56612;52.030;113.524;2022-08-27T00:04:10;15.63;;;5.30;;
69419;SDS011;56612;52.030;113.524;2022-08-27T00:07:14;17.80;;;5.40;;
69419;SDS011;56612;52.030;113.524;2022-08-27T00:10:20;11.40;;;5.00;;
69419;SDS011;56612;52.030;113.524;2022-08-27T00:13:25;15.68;;;5.20;;
69419;SDS011;56612;52.030;113.524;2022-08-27T00:16:29;14.73;;;4.90;;
69419;SDS011;56612;52.030;113.524;2022-08-27T00:19:34;12.98;;;4.20;;
69419;SDS011;56612;52.030;113.524;2022-08-27T00:22:39;18.27;;;5.47;;
69419;SDS011;56612;52.030;113.524;2022-08-27T00:25:43;10.93;;;5.03;;
69419;SDS011;56612;52.030;113.524;2022-08-27T00:28:47;15.48;;;5.40;;
69419;SDS011;56612;52.030;113.524;2022-08-27T00:31:52;14.23;;;5.57;;
69419;SDS011;56612;52.030;113.524;2022-08-27T00:34:56;9.05;;;3.47;;
69419;SDS011;56612;52.030;113.524;2022-08-27T00:38:00;8.17;;;3.67;;
69419;SDS011;56612;52.030;113.524;2022-08-27T00:41:05;8.60;;;3.47;;
69419;SDS011;56612;52.030;113.524;2022-08-27T00:44:13;9.52;;;3.30;;
69419;SDS011;56612;52.030;113.524;2022-08-27T00:47:19;7.80;;;3.60;;
69419;SDS011;56612;52.030;113.524;2022-08-27T00:50:33;13.68;;;4.07;;
69419;SDS011;56612;52.030;113.524;2022-08-27T00:53:40;9.77;;;3.03;;
69419;SDS011;56612;52.030;113.524;2022-08-27T00:56:45;8.77;;;2.90;;
69419;SDS011;56612;52.030;113.524;2022-08-27T00:59:53;8.32;;;2.85;;
69419;SDS011;56612;52.030;113.524;2022-08-27T01:02:57;9.52;;;2.90;;
69419;SDS011;56612;52.030;113.524;2022-08-27T01:06:02;7.25;;;2.70;;
69419;SDS011;56612;52.030;113.524;2022-08-27T01:09:17;7.50;;;2.60;;
69419;SDS011;56612;52.030;113.524;2022-08-27T01:12:21;7.97;;;2.73;;
69419;SDS011;56612;52.030;113.524;2022-08-27T01:15:26;7.07;;;3.20;;
69419;SDS011;56612;52.030;113.524;2022-08-27T01:18:31;49.05;;;30.67;;
69419;SDS011;56612;52.030;113.524;2022-08-27T01:21:57;9.80;;;4.97;;
69419;SDS011;56612;52.030;113.524;2022-08-27T01:25:24;8.53;;;3.40;;
69419;SDS011;56612;52.030;113.524;2022-08-27T01:28:29;7.77;;;3.10;;
69419;SDS011;56612;52.030;113.524;2022-08-27T01:31:39;8.50;;;3.20;;
69419;SDS011;56612;52.030;113.524;2022-08-27T01:34:42;14.85;;;9.10;;
69419;SDS011;56612;52.030;113.524;2022-08-27T01:37:47;7.50;;;3.92;;
69419;SDS011;56612;52.030;113.524;2022-08-27T01:40:53;13.40;;;4.83;;
69419;SDS011;56612;52.030;113.524;2022-08-27T01:43:57;8.10;;;4.10;;
69419;SDS011;56612;52.030;113.524;2022-08-27T01:47:00;14.30;;;6.13;;
69419;SDS011;56612;52.030;113.524;2022-08-27T01:50:06;7.57;;;3.60;;
69419;SDS011;56612;52.030;113.524;2022-08-27T01:53:15;6.18;;;2.85;;
69419;SDS011;56612;52.030;113.524;2022-08-27T01:56:20;7.37;;;3.20;;
69419;SDS011;56612;52.030;113.524;2022-08-27T01:59:24;8.63;;;3.60;;
69419;SDS011;56612;52.030;113.524;2022-08-27T02:02:43;8.77;;;2.80;;
69419;SDS011;56612;52.030;113.524;2022-08-27T02:05:48;5.32;;;3.25;;
69419;SDS011;56612;52.030;113.524;2022-08-27T02:08:51;7.60;;;3.63;;
69419;SDS011;56612;52.030;113.524;2022-08-27T02:11:56;8.40;;;3.50;;
69419;SDS011;56612;52.030;113.524;2022-08-27T02:14:59;7.80;;;3.13;;
69419;SDS011;56612;52.030;113.524;2022-08-27T02:18:03;8.02;;;3.35;;
69419;SDS011;56612;52.030;113.524;2022-08-27T02:21:07;13.48;;;7.63;;
69419;SDS011;56612;52.030;113.524;2022-08-27T02:24:12;8.23;;;4.72;;
69419;SDS011;56612;52.030;113.524;2022-08-27T02:27:16;9.03;;;3.70;;
69419;SDS011;56612;52.030;113.524;2022-08-27T02:30:21;7.50;;;3.20;;
69419;SDS011;56612;52.030;113.524;2022-08-27T02:33:26;8.25;;;3.63;;
69419;SDS011;56612;52.030;113.524;2022-08-27T02:36:30;7.43;;;3.15;;
69419;SDS011;56612;52.030;113.524;2022-08-27T02:39:33;7.72;;;3.92;;
69419;SDS011;56612;52.030;113.524;2022-08-27T02:42:39;8.57;;;3.80;;
69419;SDS011;56612;52.030;113.524;2022-08-27T02:45:42;11.90;;;3.60;;
69419;SDS011;56612;52.030;113.524;2022-08-27T02:48:46;6.65;;;3.17;;
69419;SDS011;56612;52.030;113.524;2022-08-27T02:51:53;6.13;;;2.92;;
69419;SDS011;56612;52.030;113.524;2022-08-27T02:54:58;8.48;;;3.10;;
69419;SDS011;56612;52.030;113.524;2022-08-27T02:58:02;7.27;;;3.17;;
69419;SDS011;56612;52.030;113.524;2022-08-27T03:01:07;10.13;;;5.77;;
69419;SDS011;56612;52.030;113.524;2022-08-27T03:04:15;8.23;;;4.18;;
69419;SDS011;56612;52.030;113.524;2022-08-27T03:07:22;8.07;;;4.30;;
69419;SDS011;56612;52.030;113.524;2022-08-27T03:10:25;9.88;;;3.33;;
69419;SDS011;56612;52.030;113.524;2022-08-27T03:13:29;9.10;;;4.10;;
69419;SDS011;56612;52.030;113.524;2022-08-27T03:16:34;6.57;;;4.47;;
69419;SDS011;56612;52.030;113.524;2022-08-27T03:19:39;9.18;;;4.03;;
69419;SDS011;56612;52.030;113.524;2022-08-27T03:22:43;7.70;;;2.70;;
69419;SDS011;56612;52.030;113.524;2022-08-27T03:25:50;7.13;;;3.70;;
69419;SDS011;56612;52.030;113.524;2022-08-27T03:28:55;6.50;;;3.30;;
69419;SDS011;56612;52.030;113.524;2022-08-27T03:32:00;6.80;;;2.90;;
69419;SDS011;56612;52.030;113.524;2022-08-27T03:35:04;7.57;;;4.90;;
69419;SDS011;56612;52.030;113.524;2022-08-27T03:38:09;8.43;;;3.38;;
69419;SDS011;56612;52.030;113.524;2022-08-27T03:41:13;7.88;;;3.53;;
69419;SDS011;56612;52.030;113.524;2022-08-27T03:44:18;9.37;;;3.90;;
69419;SDS011;56612;52.030;113.524;2022-08-27T03:47:22;6.87;;;4.00;;
69419;SDS011;56612;52.030;113.524;2022-08-27T03:50:26;5.10;;;3.08;;
69419;SDS011;56612;52.030;113.524;2022-08-27T03:53:31;7.32;;;3.20;;
69419;SDS011;56612;52.030;113.524;2022-08-27T03:56:34;6.78;;;3.00;;
69419;SDS011;56612;52.030;113.524;2022-08-27T03:59:41;5.67;;;2.43;;
69419;SDS011;56612;52.030;113.524;2022-08-27T04:02:45;9.37;;;2.70;;
69419;SDS011;56612;52.030;113.524;2022-08-27T04:05:51;6.32;;;2.65;;
69419;SDS011;56612;52.030;113.524;2022-08-27T04:08:57;5.45;;;2.60;;
69419;SDS011;56612;52.030;113.524;2022-08-27T04:12:01;7.95;;;3.05;;
69419;SDS011;56612;52.030;113.524;2022-08-27T04:15:06;4.13;;;2.37;;
69419;SDS011;56612;52.030;113.524;2022-08-27T04:18:10;4.90;;;2.50;;
69419;SDS011;56612;52.030;113.524;2022-08-27T04:21:16;7.25;;;2.80;;
69419;SDS011;56612;52.030;113.524;2022-08-27T04:24:20;9.10;;;2.72;;
69419;SDS011;56612;52.030;113.524;2022-08-27T04:27:24;6.65;;;2.95;;
69419;SDS011;56612;52.030;113.524;2022-08-27T04:30:29;5.30;;;2.20;;
69419;SDS011;56612;52.030;113.524;2022-08-27T04:33:34;8.43;;;2.63;;
69419;SDS011;56612;52.030;113.524;2022-08-27T04:36:37;7.22;;;3.10;;
69419;SDS011;56612;52.030;113.524;2022-08-27T04:39:40;6.72;;;2.22;;
69419;SDS011;56612;52.030;113.524;2022-08-27T04:42:50;6.05;;;2.92;;
69419;SDS011;56612;52.030;113.524;2022-08-27T04:45:54;6.03;;;2.67;;
69419;SDS011;56612;52.030;113.524;2022-08-27T04:49:00;4.77;;;1.90;;
69419;SDS011;56612;52.030;113.524;2022-08-27T04:52:11;3.45;;;1.60;;
69419;SDS011;56612;52.030;113.524;2022-08-27T04:55:15;4.53;;;1.60;;
69419;SDS011;56612;52.030;113.524;2022-08-27T04:58:20;5.40;;;2.00;;
69419;SDS011;56612;52.030;113.524;2022-08-27T05:01:25;16.33;;;9.33;;
69419;SDS011;56612;52.030;113.524;2022-08-27T05:04:30;4.00;;;1.80;;
69419;SDS011;56612;52.030;113.524;2022-08-27T05:07:33;4.38;;;1.50;;
69419;SDS011;56612;52.030;113.524;2022-08-27T05:13:47;5.18;;;1.60;;
69419;SDS011;56612;52.030;113.524;2022-08-27T05:16:52;4.80;;;1.40;;
69419;SDS011;56612;52.030;113.524;2022-08-27T05:19:55;5.33;;;1.97;;
69419;SDS011;56612;52.030;113.524;2022-08-27T05:23:00;3.97;;;1.80;;
69419;SDS011;56612;52.030;113.524;2022-08-27T05:26:04;3.38;;;1.20;;
69419;SDS011;56612;52.030;113.524;2022-08-27T05:29:10;3.28;;;1.40;;
69419;SDS011;56612;52.030;113.524;2022-08-27T05:32:14;6.60;;;2.10;;
69419;SDS011;56612;52.030;113.524;2022-08-27T05:35:17;6.07;;;1.77;;
69419;SDS011;56612;52.030;113.524;2022-08-27T05:38:21;4.00;;;1.70;;
69419;SDS011;56612;52.030;113.524;2022-08-27T05:41:27;5.68;;;2.25;;
69419;SDS011;56612;52.030;113.524;2022-08-27T05:44:35;4.35;;;1.55;;
69419;SDS011;56612;52.030;113.524;2022-08-27T05:47:42;4.03;;;1.47;;
69419;SDS011;56612;52.030;113.524;2022-08-27T05:50:46;4.80;;;1.20;;
69419;SDS011;56612;52.030;113.524;2022-08-27T05:53:50;4.07;;;1.60;;
69419;SDS011;56612;52.030;113.524;2022-08-27T05:56:58;4.47;;;1.90;;
69419;SDS011;56612;52.030;113.524;2022-08-27T06:00:05;4.53;;;1.90;;
69419;SDS011;56612;52.030;113.524;2022-08-27T06:03:28;18.80;;;11.20;;
69419;SDS011;56612;52.030;113.524;2022-08-27T06:06:38;4.13;;;2.07;;
69419;SDS011;56612;52.030;113.524;2022-08-27T06:09:44;3.80;;;2.20;;
69419;SDS011;56612;52.030;113.524;2022-08-27T06:12:47;3.38;;;1.92;;
69419;SDS011;56612;52.030;113.524;2022-08-27T06:16:01;4.97;;;2.10;;
69419;SDS011;56612;52.030;113.524;2022-08-27T06:19:12;6.50;;;2.40;;
69419;SDS011;56612;52.030;113.524;2022-08-27T06:22:17;5.13;;;3.10;;
69419;SDS011;56612;52.030;113.524;2022-08-27T06:25:20;7.28;;;4.90;;
69419;SDS011;56612;52.030;113.524;2022-08-27T06:28:25;6.18;;;2.40;;
69419;SDS011;56612;52.030;113.524;2022-08-27T06:31:33;5.45;;;2.13;;
69419;SDS011;56612;52.030;113.524;2022-08-27T06:34:37;5.40;;;1.80;;
69419;SDS011;56612;52.030;113.524;2022-08-27T06:37:41;7.60;;;2.03;;
69419;SDS011;56612;52.030;113.524;2022-08-27T06:40:44;4.22;;;2.13;;
69419;SDS011;56612;52.030;113.524;2022-08-27T06:43:49;3.15;;;2.00;;
69419;SDS011;56612;52.030;113.524;2022-08-27T06:46:53;3.40;;;1.55;;
69419;SDS011;56612;52.030;113.524;2022-08-27T06:49:58;5.23;;;2.20;;
69419;SDS011;56612;52.030;113.524;2022-08-27T06:53:02;4.30;;;1.70;;
69419;SDS011;56612;52.030;113.524;2022-08-27T06:56:06;3.40;;;2.05;;
69419;SDS011;56612;52.030;113.524;2022-08-27T06:59:12;5.15;;;1.83;;
69419;SDS011;56612;52.030;113.524;2022-08-27T07:02:19;3.85;;;2.05;;
69419;SDS011;56612;52.030;113.524;2022-08-27T07:05:22;5.10;;;1.93;;
69419;SDS011;56612;52.030;113.524;2022-08-27T07:08:26;5.97;;;2.40;;
69419;SDS011;56612;52.030;113.524;2022-08-27T07:11:30;4.07;;;1.70;;
69419;SDS011;56612;52.030;113.524;2022-08-27T07:14:34;4.20;;;1.77;;
69419;SDS011;56612;52.030;113.524;2022-08-27T07:17:39;3.33;;;1.58;;
69419;SDS011;56612;52.030;113.524;2022-08-27T07:20:45;3.60;;;1.50;;
69419;SDS011;56612;52.030;113.524;2022-08-27T07:23:50;5.50;;;1.73;;
69419;SDS011;56612;52.030;113.524;2022-08-27T07:26:55;8.85;;;2.03;;
69419;SDS011;56612;52.030;113.524;2022-08-27T07:29:59;4.88;;;2.00;;
69419;SDS011;56612;52.030;113.524;2022-08-27T07:33:03;8.05;;;1.90;;
69419;SDS011;56612;52.030;113.524;2022-08-27T07:36:07;4.30;;;2.17;;
69419;SDS011;56612;52.030;113.524;2022-08-27T07:39:12;5.60;;;1.67;;
69419;SDS011;56612;52.030;113.524;2022-08-27T07:42:18;7.60;;;4.07;;
69419;SDS011;56612;52.030;113.524;2022-08-27T07:45:45;5.13;;;2.05;;
69419;SDS011;56612;52.030;113.524;2022-08-27T07:48:51;3.22;;;1.73;;
69419;SDS011;56612;52.030;113.524;2022-08-27T07:51:56;5.27;;;1.90;;
69419;SDS011;56612;52.030;113.524;2022-08-27T07:55:01;5.40;;;2.10;;
69419;SDS011;56612;52.030;113.524;2022-08-27T07:58:05;3.78;;;2.00;;
69419;SDS011;56612;52.030;113.524;2022-08-27T08:01:13;3.50;;;1.88;;
69419;SDS011;56612;52.030;113.524;2022-08-27T08:04:17;5.05;;;2.55;;
69419;SDS011;56612;52.030;113.524;2022-08-27T08:07:22;3.70;;;1.50;;
69419;SDS011;56612;52.030;113.524;2022-08-27T08:10:27;5.47;;;2.10;;
69419;SDS011;56612;52.030;113.524;2022-08-27T08:13:36;6.03;;;2.30;;
69419;SDS011;56612;52.030;113.524;2022-08-27T08:16:41;4.28;;;1.23;;
69419;SDS011;56612;52.030;113.524;2022-08-27T08:19:45;4.65;;;1.73;;
69419;SDS011;56612;52.030;113.524;2022-08-27T08:23:11;3.50;;;1.77;;
69419;SDS011;56612;52.030;113.524;2022-08-27T08:26:14;3.10;;;1.33;;
69419;SDS011;56612;52.030;113.524;2022-08-27T08:29:18;4.18;;;1.88;;
69419;SDS011;56612;52.030;113.524;2022-08-27T08:32:21;2.95;;;1.50;;
69419;SDS011;56612;52.030;113.524;2022-08-27T08:35:25;5.00;;;1.92;;
69419;SDS011;56612;52.030;113.524;2022-08-27T08:38:40;3.50;;;1.37;;
69419;SDS011;56612;52.030;113.524;2022-08-27T08:41:47;3.83;;;1.63;;
69419;SDS011;56612;52.030;113.524;2022-08-27T08:44:58;4.22;;;1.50;;
69419;SDS011;56612;52.030;113.524;2022-08-27T08:48:05;4.20;;;2.25;;
69419;SDS011;56612;52.030;113.524;2022-08-27T08:54:22;5.13;;;2.40;;
69419;SDS011;56612;52.030;113.524;2022-08-27T08:57:30;3.47;;;2.10;;
69419;SDS011;56612;52.030;113.524;2022-08-27T09:00:39;3.95;;;2.30;;
69419;SDS011;56612;52.030;113.524;2022-08-27T09:03:50;3.80;;;2.20;;
69419;SDS011;56612;52.030;113.524;2022-08-27T09:10:53;8.10;;;2.60;;
69419;SDS011;56612;52.030;113.524;2022-08-27T09:17:24;4.28;;;1.98;;
69419;SDS011;56612;52.030;113.524;2022-08-27T09:20:29;4.55;;;1.60;;
69419;SDS011;56612;52.030;113.524;2022-08-27T09:23:39;3.38;;;1.42;;
69419;SDS011;56612;52.030;113.524;2022-08-27T09:27:04;4.90;;;2.43;;
69419;SDS011;56612;52.030;113.524;2022-08-27T09:30:10;7.10;;;3.00;;
69419;SDS011;56612;52.030;113.524;2022-08-27T09:33:20;6.32;;;3.25;;
69419;SDS011;56612;52.030;113.524;2022-08-27T09:36:24;4.93;;;2.22;;
69419;SDS011;56612;52.030;113.524;2022-08-27T09:39:31;7.32;;;2.80;;
69419;SDS011;56612;52.030;113.524;2022-08-27T09:42:40;6.33;;;2.83;;
69419;SDS011;56612;52.030;113.524;2022-08-27T09:45:52;4.70;;;2.50;;
69419;SDS011;56612;52.030;113.524;2022-08-27T09:49:20;6.85;;;2.67;;
69419;SDS011;56612;52.030;113.524;2022-08-27T09:52:29;7.47;;;2.35;;
69419;SDS011;56612;52.030;113.524;2022-08-27T09:55:43;5.90;;;2.20;;
69419;SDS011;56612;52.030;113.524;2022-08-27T09:58:55;5.80;;;2.40;;
69419;SDS011;56612;52.030;113.524;2022-08-27T10:02:16;8.33;;;2.80;;
69419;SDS011;56612;52.030;113.524;2022-08-27T10:05:27;8.65;;;4.50;;
69419;SDS011;56612;52.030;113.524;2022-08-27T10:08:37;9.85;;;4.80;;
69419;SDS011;56612;52.030;113.524;2022-08-27T10:15:06;11.70;;;4.33;;
69419;SDS011;56612;52.030;113.524;2022-08-27T10:18:19;17.23;;;5.27;;
69419;SDS011;56612;52.030;113.524;2022-08-27T10:21:40;11.70;;;4.25;;
69419;SDS011;56612;52.030;113.524;2022-08-27T10:35:25;6.50;;;2.30;;
69419;SDS011;56612;52.030;113.524;2022-08-27T10:41:51;15.15;;;2.80;;
69419;SDS011;56612;52.030;113.524;2022-08-27T10:48:39;12.40;;;3.83;;
69419;SDS011;56612;52.030;113.524;2022-08-27T10:51:56;10.43;;;3.93;;
69419;SDS011;56612;52.030;113.524;2022-08-27T10:55:21;12.00;;;4.05;;
69419;SDS011;56612;52.030;113.524;2022-08-27T10:58:39;9.18;;;3.78;;
69419;SDS011;56612;52.030;113.524;2022-08-27T11:02:11;17.73;;;5.63;;
69419;SDS011;56612;52.030;113.524;2022-08-27T11:08:44;23.00;;;8.30;;
69419;SDS011;56612;52.030;113.524;2022-08-27T11:11:53;18.13;;;8.70;;
69419;SDS011;56612;52.030;113.524;2022-08-27T11:15:20;19.63;;;7.60;;
69419;SDS011;56612;52.030;113.524;2022-08-27T11:18:40;15.73;;;6.22;;
69419;SDS011;56612;52.030;113.524;2022-08-27T11:22:32;21.30;;;6.50;;
69419;SDS011;56612;52.030;113.524;2022-08-27T11:25:33;18.23;;;4.80;;
69419;SDS011;56612;52.030;113.524;2022-08-27T11:28:56;13.23;;;4.25;;
69419;SDS011;56612;52.030;113.524;2022-08-27T11:32:19;18.02;;;3.60;;
69419;SDS011;56612;52.030;113.524;2022-08-27T11:41:53;12.37;;;3.50;;
69419;SDS011;56612;52.030;113.524;2022-08-27T11:45:05;12.05;;;3.10;;
69419;SDS011;56612;52.030;113.524;2022-08-27T11:57:49;9.00;;;2.80;;
69419;SDS011;56612;52.030;113.524;2022-08-27T12:01:28;6.68;;;2.42;;
69419;SDS011;56612;52.030;113.524;2022-08-27T12:04:35;7.90;;;3.20;;
69419;SDS011;56612;52.030;113.524;2022-08-27T12:07:42;6.72;;;3.33;;
69419;SDS011;56612;52.030;113.524;2022-08-27T12:25:05;9.32;;;1.88;;
69419;SDS011;56612;52.030;113.524;2022-08-27T12:28:09;6.80;;;2.20;;
69419;SDS011;56612;52.030;113.524;2022-08-27T12:31:28;9.60;;;3.23;;
69419;SDS011;56612;52.030;113.524;2022-08-27T12:34:40;7.38;;;2.08;;
69419;SDS011;56612;52.030;113.524;2022-08-27T12:37:51;5.80;;;2.47;;
69419;SDS011;56612;52.030;113.524;2022-08-27T12:40:58;9.05;;;2.47;;
69419;SDS011;56612;52.030;113.524;2022-08-27T12:44:09;6.27;;;2.43;;
69419;SDS011;56612;52.030;113.524;2022-08-27T12:47:18;7.97;;;2.13;;
69419;SDS011;56612;52.030;113.524;2022-08-27T12:50:24;10.13;;;3.15;;
69419;SDS011;56612;52.030;113.524;2022-08-27T12:53:36;11.10;;;3.97;;
69419;SDS011;56612;52.030;113.524;2022-08-27T12:56:53;16.92;;;4.80;;
69419;SDS011;56612;52.030;113.524;2022-08-27T13:00:20;16.50;;;4.53;;
69419;SDS011;56612;52.030;113.524;2022-08-27T13:03:32;10.73;;;4.90;;
69419;SDS011;56612;52.030;113.524;2022-08-27T13:06:45;10.98;;;3.97;;
69419;SDS011;56612;52.030;113.524;2022-08-27T13:09:48;11.25;;;4.10;;
69419;SDS011;56612;52.030;113.524;2022-08-27T13:13:11;13.98;;;4.60;;
69419;SDS011;56612;52.030;113.524;2022-08-27T13:16:19;13.67;;;4.30;;
69419;SDS011;56612;52.030;113.524;2022-08-27T13:19:31;11.00;;;4.33;;
69419;SDS011;56612;52.030;113.524;2022-08-27T13:22:38;11.20;;;3.45;;
69419;SDS011;56612;52.030;113.524;2022-08-27T13:25:52;9.00;;;3.50;;
69419;SDS011;56612;52.030;113.524;2022-08-27T13:29:05;8.80;;;3.45;;
69419;SDS011;56612;52.030;113.524;2022-08-27T13:32:10;10.90;;;3.10;;
69419;SDS011;56612;52.030;113.524;2022-08-27T13:35:17;10.17;;;4.53;;
69419;SDS011;56612;52.030;113.524;2022-08-27T13:38:22;23.27;;;8.45;;
69419;SDS011;56612;52.030;113.524;2022-08-27T13:41:29;27.50;;;8.88;;
69419;SDS011;56612;52.030;113.524;2022-08-27T13:44:39;21.27;;;8.98;;
69419;SDS011;56612;52.030;113.524;2022-08-27T13:47:49;26.60;;;8.90;;
69419;SDS011;56612;52.030;113.524;2022-08-27T13:50:56;22.03;;;8.80;;
69419;SDS011;56612;52.030;113.524;2022-08-27T13:54:05;21.65;;;9.45;;
69419;SDS011;56612;52.030;113.524;2022-08-27T13:57:25;21.85;;;9.95;;
69419;SDS011;56612;52.030;113.524;2022-08-27T14:00:33;17.65;;;8.13;;
69419;SDS011;56612;52.030;113.524;2022-08-27T14:03:45;13.77;;;7.60;;
69419;SDS011;56612;52.030;113.524;2022-08-27T14:06:51;17.50;;;7.40;;
69419;SDS011;56612;52.030;113.524;2022-08-27T14:09:58;13.70;;;6.68;;
69419;SDS011;56612;52.030;113.524;2022-08-27T14:13:09;14.93;;;6.07;;
69419;SDS011;56612;52.030;113.524;2022-08-27T14:16:29;13.32;;;6.90;;
69419;SDS011;56612;52.030;113.524;2022-08-27T14:19:35;13.87;;;5.80;;
69419;SDS011;56612;52.030;113.524;2022-08-27T14:22:42;15.63;;;4.73;;
69419;SDS011;56612;52.030;113.524;2022-08-27T14:25:47;11.90;;;4.30;;
69419;SDS011;56612;52.030;113.524;2022-08-27T14:28:51;9.25;;;4.20;;
69419;SDS011;56612;52.030;113.524;2022-08-27T14:31:56;10.90;;;5.10;;
69419;SDS011;56612;52.030;113.524;2022-08-27T14:35:00;8.40;;;2.47;;
69419;SDS011;56612;52.030;113.524;2022-08-27T14:38:10;5.97;;;2.30;;
69419;SDS011;56612;52.030;113.524;2022-08-27T14:41:22;13.73;;;3.30;;
69419;SDS011;56612;52.030;113.524;2022-08-27T14:44:27;12.60;;;4.55;;
69419;SDS011;56612;52.030;113.524;2022-08-27T14:47:31;15.70;;;5.65;;
69419;SDS011;56612;52.030;113.524;2022-08-27T14:50:38;17.60;;;5.70;;
69419;SDS011;56612;52.030;113.524;2022-08-27T14:53:42;14.63;;;5.10;;
69419;SDS011;56612;52.030;113.524;2022-08-27T14:56:46;16.30;;;5.68;;
69419;SDS011;56612;52.030;113.524;2022-08-27T14:59:50;9.88;;;3.83;;
69419;SDS011;56612;52.030;113.524;2022-08-27T15:02:54;6.93;;;1.85;;
69419;SDS011;56612;52.030;113.524;2022-08-27T15:05:59;8.17;;;1.73;;
69419;SDS011;56612;52.030;113.524;2022-08-27T15:09:03;4.10;;;1.70;;
69419;SDS011;56612;52.030;113.524;2022-08-27T15:12:07;7.05;;;2.00;;
69419;SDS011;56612;52.030;113.524;2022-08-27T15:15:27;8.70;;;1.67;;
69419;SDS011;56612;52.030;113.524;2022-08-27T15:18:30;10.77;;;2.05;;
69419;SDS011;56612;52.030;113.524;2022-08-27T15:21:34;13.97;;;3.70;;
69419;SDS011;56612;52.030;113.524;2022-08-27T15:24:46;22.33;;;9.77;;
69419;SDS011;56612;52.030;113.524;2022-08-27T15:27:52;22.45;;;10.77;;
69419;SDS011;56612;52.030;113.524;2022-08-27T15:30:56;27.65;;;11.35;;
69419;SDS011;56612;52.030;113.524;2022-08-27T15:34:01;28.70;;;10.95;;
69419;SDS011;56612;52.030;113.524;2022-08-27T15:37:05;22.47;;;9.53;;
69419;SDS011;56612;52.030;113.524;2022-08-27T15:40:10;16.70;;;8.07;;
69419;SDS011;56612;52.030;113.524;2022-08-27T15:43:16;18.92;;;8.30;;
69419;SDS011;56612;52.030;113.524;2022-08-27T15:46:20;17.33;;;7.22;;
69419;SDS011;56612;52.030;113.524;2022-08-27T15:49:24;12.32;;;6.30;;
69419;SDS011;56612;52.030;113.524;2022-08-27T15:52:29;14.93;;;6.00;;
69419;SDS011;56612;52.030;113.524;2022-08-27T15:55:42;11.80;;;5.43;;
69419;SDS011;56612;52.030;113.524;2022-08-27T15:58:46;12.65;;;5.93;;
69419;SDS011;56612;52.030;113.524;2022-08-27T16:01:50;12.93;;;5.07;;
69419;SDS011;56612;52.030;113.524;2022-08-27T16:04:55;12.50;;;5.60;;
69419;SDS011;56612;52.030;113.524;2022-08-27T16:07:58;11.33;;;4.50;;
69419;SDS011;56612;52.030;113.524;2022-08-27T16:11:03;10.23;;;4.40;;
69419;SDS011;56612;52.030;113.524;2022-08-27T16:14:07;12.02;;;4.75;;
69419;SDS011;56612;52.030;113.524;2022-08-27T16:17:12;12.35;;;4.85;;
69419;SDS011;56612;52.030;113.524;2022-08-27T16:20:16;11.32;;;4.85;;
69419;SDS011;56612;52.030;113.524;2022-08-27T16:23:22;9.57;;;4.47;;
69419;SDS011;56612;52.030;113.524;2022-08-27T16:26:28;8.60;;;3.83;;
69419;SDS011;56612;52.030;113.524;2022-08-27T16:29:31;13.13;;;4.60;;
69419;SDS011;56612;52.030;113.524;2022-08-27T16:32:35;11.10;;;4.53;;
69419;SDS011;56612;52.030;113.524;2022-08-27T16:35:40;11.18;;;4.70;;
69419;SDS011;56612;52.030;113.524;2022-08-27T16:38:44;11.40;;;4.73;;
69419;SDS011;56612;52.030;113.524;2022-08-27T16:41:48;14.13;;;4.90;;
69419;SDS011;56612;52.030;113.524;2022-08-27T16:44:51;14.98;;;5.57;;
69419;SDS011;56612;52.030;113.524;2022-08-27T16:47:56;12.15;;;5.05;;
69419;SDS011;56612;52.030;113.524;2022-08-27T16:51:18;12.63;;;4.75;;
69419;SDS011;56612;52.030;113.524;2022-08-27T16:54:34;13.60;;;5.03;;
69419;SDS011;56612;52.030;113.524;2022-08-27T16:57:37;11.73;;;4.63;;
69419;SDS011;56612;52.030;113.524;2022-08-27T17:00:42;10.85;;;4.88;;
69419;SDS011;56612;52.030;113.524;2022-08-27T17:03:48;9.55;;;4.50;;
69419;SDS011;56612;52.030;113.524;2022-08-27T17:07:18;14.50;;;3.90;;
69419;SDS011;56612;52.030;113.524;2022-08-27T17:10:27;7.30;;;3.03;;
69419;SDS011;56612;52.030;113.524;2022-08-27T17:13:37;7.53;;;3.90;;
69419;SDS011;56612;52.030;113.524;2022-08-27T17:16:41;7.53;;;3.08;;
69419;SDS011;56612;52.030;113.524;2022-08-27T17:19:45;16.02;;;4.22;;
69419;SDS011;56612;52.030;113.524;2022-08-27T17:22:49;11.25;;;4.53;;
69419;SDS011;56612;52.030;113.524;2022-08-27T17:25:54;12.83;;;4.30;;
69419;SDS011;56612;52.030;113.524;2022-08-27T17:28:58;13.43;;;4.67;;
69419;SDS011;56612;52.030;113.524;2022-08-27T17:32:03;11.68;;;4.38;;
69419;SDS011;56612;52.030;113.524;2022-08-27T17:35:09;13.40;;;5.07;;
69419;SDS011;56612;52.030;113.524;2022-08-27T17:38:14;9.63;;;4.85;;
69419;SDS011;56612;52.030;113.524;2022-08-27T17:41:22;14.97;;;4.80;;
69419;SDS011;56612;52.030;113.524;2022-08-27T17:44:36;13.90;;;5.17;;
69419;SDS011;56612;52.030;113.524;2022-08-27T17:47:40;12.43;;;4.25;;
69419;SDS011;56612;52.030;113.524;2022-08-27T17:50:44;9.40;;;3.80;;
69419;SDS011;56612;52.030;113.524;2022-08-27T17:53:49;7.88;;;3.80;;
69419;SDS011;56612;52.030;113.524;2022-08-27T17:57:03;12.70;;;3.57;;
69419;SDS011;56612;52.030;113.524;2022-08-27T18:00:15;12.50;;;3.57;;
69419;SDS011;56612;52.030;113.524;2022-08-27T18:03:19;8.30;;;3.25;;
69419;SDS011;56612;52.030;113.524;2022-08-27T18:06:23;7.88;;;3.38;;
69419;SDS011;56612;52.030;113.524;2022-08-27T18:09:28;9.38;;;3.70;;
69419;SDS011;56612;52.030;113.524;2022-08-27T18:12:32;8.87;;;3.80;;
69419;SDS011;56612;52.030;113.524;2022-08-27T18:15:37;11.20;;;3.83;;
69419;SDS011;56612;52.030;113.524;2022-08-27T18:18:42;8.65;;;3.30;;
69419;SDS011;56612;52.030;113.524;2022-08-27T18:21:46;11.32;;;3.97;;
69419;SDS011;56612;52.030;113.524;2022-08-27T18:24:51;7.85;;;3.17;;
69419;SDS011;56612;52.030;113.524;2022-08-27T18:27:57;11.03;;;4.37;;
69419;SDS011;56612;52.030;113.524;2022-08-27T18:31:03;10.67;;;3.80;;
69419;SDS011;56612;52.030;113.524;2022-08-27T18:34:10;7.88;;;3.63;;
69419;SDS011;56612;52.030;113.524;2022-08-27T18:37:20;11.48;;;4.05;;
69419;SDS011;56612;52.030;113.524;2022-08-27T18:40:25;8.45;;;3.22;;
69419;SDS011;56612;52.030;113.524;2022-08-27T18:43:32;8.33;;;3.50;;
69419;SDS011;56612;52.030;113.524;2022-08-27T18:46:36;9.57;;;3.67;;
69419;SDS011;56612;52.030;113.524;2022-08-27T18:49:40;8.30;;;3.15;;
69419;SDS011;56612;52.030;113.524;2022-08-27T18:52:45;11.68;;;2.95;;
69419;SDS011;56612;52.030;113.524;2022-08-27T18:55:50;7.82;;;3.33;;
69419;SDS011;56612;52.030;113.524;2022-08-27T18:58:55;8.03;;;3.50;;
69419;SDS011;56612;52.030;113.524;2022-08-27T19:01:59;10.13;;;3.70;;
69419;SDS011;56612;52.030;113.524;2022-08-27T19:05:05;12.07;;;3.50;;
69419;SDS011;56612;52.030;113.524;2022-08-27T19:08:11;10.15;;;3.53;;
69419;SDS011;56612;52.030;113.524;2022-08-27T19:11:20;9.85;;;3.42;;
69419;SDS011;56612;52.030;113.524;2022-08-27T19:14:23;7.63;;;2.80;;
69419;SDS011;56612;52.030;113.524;2022-08-27T19:17:29;7.30;;;2.90;;